Aeropuerto Internacional General Rafael Buelna, México

2:11 AM MDT en Octubre 01, 2014 (GMT -0600)
Gen Rafael Buelna International | Change Station
CLOSE
Current Station
Aeropuerto
Location: Mazatlan Airport,
Altura: 33 ft
Estaciones meteorológicas cercanas

Alt 33 ft 23.16 °N, 106.27 °W | Updated 29 minutes ago

Mostly Cloudy
Muy nublado
73 ° F
Sensación térmica 73 ° F
N
8
Viento Variable Viento desde NE

Hoy
Alta -- | Baja -- ° F
--% Posibilidad de precipitaciones
Ayer
Alta -- | Baja -- ° F
Precip. -- pul
6:56 AM 6:52 PM
Creciente, 45% visible
Presión 29.72 pul
Visibilidad 10.0 Millas
Nubes Nubes dispersas 9000 ft
Muy nublado 22000 ft
Punto de rocío 72 ° F
Humedad 94%
Precipitaciones 0.00 pul
Espesor de la nieve No disponible.
UV 0 de una escala de 12
Polen No disponible.
Calidad del aire No disponible.
Flu Activity No disponible.
METAR MMMZ 010742Z 04007KT 10SM SCT090 BKN220 23/22 A2972 RMK 8/063 HZY FQTS LTGIC SE

More Conditions Fewer Conditions

Presión 29.72 pul
Visibilidad 10.0 Millas
Nubes Nubes dispersas 9000 ft
Muy nublado 22000 ft
Punto de rocío 72 ° F
Humedad 94%
Precipitaciones 0.00 pul
Espesor de la nieve No disponible.
UV 0 de una escala de 12
Polen No disponible.
Calidad del aire No disponible.
Flu Activity No disponible.
METAR MMMZ 010742Z 04007KT 10SM SCT090 BKN220 23/22 A2972 RMK 8/063 HZY FQTS LTGIC SE

More Conditions Fewer Conditions

10-Day Weather Forecast

Almanac

Astronomía

Oct. 01, 2014 Salida Puesta
Hora real 6:56 AM MDT 6:52 PM MDT
Crepúsculo civil 6:34 AM MDT 7:14 PM MDT
Crepúsculo náutico 6:08 AM MDT 7:40 PM MDT
Crepúsculo astronómico 5:41 AM MDT 8:06 PM MDT
Luna 1:32 PM MDT Sin puesta de luna
Horas de luz 12h 40m
Horas de luz
11h 55m
Tomorrow will be 1m 19s shorter.
Creciente, 45% of the Moon is Illuminated
Hoy
Creciente
Oct 1
Cuarto creciente
Oct 8
Luna llena
Oct 15
Cuarto menguante
Oct 23
Nueva

Extremos de ayer

Máximos del país Bajas del país

Community

WunderPhotos

Upload Photos

1,757,902 ¡fotos cargadas!

Nearby

Calidad del aire

Not available.

Grosos de nieve

Not available.

Actividad de terremotos

Ciudad Distance Mag. Tiempo y dato
No hay informes recientes de la actividad sísmica.
Magnitud mínima muestra es 2,5.

Temperaturas de aguas costeras

Lugar Temperatura
Sin partes meteorológicos de las estaciones

Estaciones meteorológicas cercanas